Terminal Aerodrome Forecast
Issued by NWS

Current Version | Previous Version | Text Only | Print | Product List | Glossary On
Versions: 1 2 3 4 5 6 7 8 9 10 11 12 13
000
FTUS42 TJSJ 041140
TAFISX
TAF
TISX 041140Z 0412/0512 07015KT P6SM SCT025 SCT040
     FM041330 10020KT P6SM SCT025 SCT040
     FM042300 08014KT P6SM VCSH FEW035=

USA.gov is the U.S. government's official web portal to all federal, state and local government web resources and services.